sensor_id;sensor_type;location;lat;lon;timestamp;P1;durP1;ratioP1;P2;durP2;ratioP2
5718;SDS011;2884;47.734;9.244;2023-04-08T00:02:22;3.50;;;3.20;;
5718;SDS011;2884;47.734;9.244;2023-04-08T00:04:47;4.23;;;2.63;;
5718;SDS011;2884;47.734;9.244;2023-04-08T00:07:13;3.73;;;2.87;;
5718;SDS011;2884;47.734;9.244;2023-04-08T00:09:38;4.23;;;2.80;;
5718;SDS011;2884;47.734;9.244;2023-04-08T00:12:04;4.33;;;3.77;;
5718;SDS011;2884;47.734;9.244;2023-04-08T00:14:30;3.73;;;3.43;;
5718;SDS011;2884;47.734;9.244;2023-04-08T00:16:56;4.30;;;3.90;;
5718;SDS011;2884;47.734;9.244;2023-04-08T00:19:21;4.90;;;4.20;;
5718;SDS011;2884;47.734;9.244;2023-04-08T00:21:47;3.80;;;3.50;;
5718;SDS011;2884;47.734;9.244;2023-04-08T00:24:12;3.03;;;2.70;;
5718;SDS011;2884;47.734;9.244;2023-04-08T00:26:38;5.10;;;3.90;;
5718;SDS011;2884;47.734;9.244;2023-04-08T00:29:04;4.80;;;3.20;;
5718;SDS011;2884;47.734;9.244;2023-04-08T00:31:29;3.47;;;3.23;;
5718;SDS011;2884;47.734;9.244;2023-04-08T00:33:55;4.80;;;4.00;;
5718;SDS011;2884;47.734;9.244;2023-04-08T00:36:21;8.60;;;5.60;;
5718;SDS011;2884;47.734;9.244;2023-04-08T00:38:46;13.80;;;9.70;;
5718;SDS011;2884;47.734;9.244;2023-04-08T00:41:12;11.63;;;7.60;;
5718;SDS011;2884;47.734;9.244;2023-04-08T00:43:38;9.07;;;6.67;;
5718;SDS011;2884;47.734;9.244;2023-04-08T00:46:03;7.50;;;6.30;;
5718;SDS011;2884;47.734;9.244;2023-04-08T00:48:29;6.47;;;4.90;;
5718;SDS011;2884;47.734;9.244;2023-04-08T00:50:56;4.70;;;4.30;;
5718;SDS011;2884;47.734;9.244;2023-04-08T00:53:21;4.37;;;4.00;;
5718;SDS011;2884;47.734;9.244;2023-04-08T00:55:47;3.97;;;3.67;;
5718;SDS011;2884;47.734;9.244;2023-04-08T00:58:12;4.07;;;3.70;;
5718;SDS011;2884;47.734;9.244;2023-04-08T01:00:39;4.63;;;3.80;;
5718;SDS011;2884;47.734;9.244;2023-04-08T01:03:12;4.70;;;4.27;;
5718;SDS011;2884;47.734;9.244;2023-04-08T01:08:15;6.40;;;4.77;;
5718;SDS011;2884;47.734;9.244;2023-04-08T01:10:42;6.07;;;4.10;;
5718;SDS011;2884;47.734;9.244;2023-04-08T01:13:09;5.23;;;4.00;;
5718;SDS011;2884;47.734;9.244;2023-04-08T01:15:37;5.00;;;4.60;;
5718;SDS011;2884;47.734;9.244;2023-04-08T01:18:06;5.90;;;5.00;;
5718;SDS011;2884;47.734;9.244;2023-04-08T01:20:33;5.47;;;4.93;;
5718;SDS011;2884;47.734;9.244;2023-04-08T01:25:47;5.57;;;5.07;;
5718;SDS011;2884;47.734;9.244;2023-04-08T01:28:15;7.57;;;5.37;;
5718;SDS011;2884;47.734;9.244;2023-04-08T01:30:42;6.03;;;5.17;;
5718;SDS011;2884;47.734;9.244;2023-04-08T01:33:10;6.97;;;5.40;;
5718;SDS011;2884;47.734;9.244;2023-04-08T01:35:36;7.10;;;5.10;;
5718;SDS011;2884;47.734;9.244;2023-04-08T01:38:02;5.83;;;5.00;;
5718;SDS011;2884;47.734;9.244;2023-04-08T01:40:30;7.00;;;5.43;;
5718;SDS011;2884;47.734;9.244;2023-04-08T01:42:57;5.83;;;5.30;;
5718;SDS011;2884;47.734;9.244;2023-04-08T01:45:23;6.03;;;5.43;;
5718;SDS011;2884;47.734;9.244;2023-04-08T01:47:49;7.07;;;5.77;;
5718;SDS011;2884;47.734;9.244;2023-04-08T01:50:16;6.40;;;5.50;;
5718;SDS011;2884;47.734;9.244;2023-04-08T01:52:42;5.83;;;5.30;;
5718;SDS011;2884;47.734;9.244;2023-04-08T01:55:09;7.30;;;5.57;;
5718;SDS011;2884;47.734;9.244;2023-04-08T01:57:36;6.63;;;5.93;;
5718;SDS011;2884;47.734;9.244;2023-04-08T02:00:06;7.13;;;5.67;;
5718;SDS011;2884;47.734;9.244;2023-04-08T02:02:37;6.73;;;5.40;;
5718;SDS011;2884;47.734;9.244;2023-04-08T02:05:05;6.83;;;6.13;;
5718;SDS011;2884;47.734;9.244;2023-04-08T02:07:31;7.43;;;6.10;;
5718;SDS011;2884;47.734;9.244;2023-04-08T02:09:57;8.80;;;7.03;;
5718;SDS011;2884;47.734;9.244;2023-04-08T02:12:22;13.10;;;8.80;;
5718;SDS011;2884;47.734;9.244;2023-04-08T02:14:48;8.77;;;7.60;;
5718;SDS011;2884;47.734;9.244;2023-04-08T02:17:19;7.83;;;6.23;;
5718;SDS011;2884;47.734;9.244;2023-04-08T02:20:04;8.63;;;6.30;;
5718;SDS011;2884;47.734;9.244;2023-04-08T02:25:27;6.50;;;5.90;;
5718;SDS011;2884;47.734;9.244;2023-04-08T02:27:53;7.87;;;6.00;;
5718;SDS011;2884;47.734;9.244;2023-04-08T02:30:20;7.40;;;6.70;;
5718;SDS011;2884;47.734;9.244;2023-04-08T02:32:46;6.60;;;5.87;;
5718;SDS011;2884;47.734;9.244;2023-04-08T02:35:12;6.10;;;5.50;;
5718;SDS011;2884;47.734;9.244;2023-04-08T02:37:38;6.80;;;5.27;;
5718;SDS011;2884;47.734;9.244;2023-04-08T02:40:04;6.50;;;5.80;;
5718;SDS011;2884;47.734;9.244;2023-04-08T02:42:49;6.43;;;5.70;;
5718;SDS011;2884;47.734;9.244;2023-04-08T02:45:15;5.90;;;5.30;;
5718;SDS011;2884;47.734;9.244;2023-04-08T02:47:41;7.60;;;6.90;;
5718;SDS011;2884;47.734;9.244;2023-04-08T02:50:07;6.43;;;5.60;;
5718;SDS011;2884;47.734;9.244;2023-04-08T02:52:33;7.17;;;6.57;;
5718;SDS011;2884;47.734;9.244;2023-04-08T02:54:58;7.13;;;5.30;;
5718;SDS011;2884;47.734;9.244;2023-04-08T02:57:24;6.83;;;6.23;;
5718;SDS011;2884;47.734;9.244;2023-04-08T02:59:49;6.70;;;6.10;;
5718;SDS011;2884;47.734;9.244;2023-04-08T03:02:15;5.60;;;5.20;;
5718;SDS011;2884;47.734;9.244;2023-04-08T03:04:41;7.07;;;5.43;;
5718;SDS011;2884;47.734;9.244;2023-04-08T03:07:07;7.33;;;6.23;;
5718;SDS011;2884;47.734;9.244;2023-04-08T03:09:32;6.23;;;5.53;;
5718;SDS011;2884;47.734;9.244;2023-04-08T03:11:58;7.37;;;6.63;;
5718;SDS011;2884;47.734;9.244;2023-04-08T03:14:23;6.30;;;5.70;;
5718;SDS011;2884;47.734;9.244;2023-04-08T03:16:49;5.40;;;4.90;;
5718;SDS011;2884;47.734;9.244;2023-04-08T03:19:15;6.83;;;6.20;;
5718;SDS011;2884;47.734;9.244;2023-04-08T03:21:40;7.40;;;5.70;;
5718;SDS011;2884;47.734;9.244;2023-04-08T03:24:06;5.87;;;5.30;;
5718;SDS011;2884;47.734;9.244;2023-04-08T03:26:32;5.40;;;5.00;;
5718;SDS011;2884;47.734;9.244;2023-04-08T03:28:57;5.40;;;4.90;;
5718;SDS011;2884;47.734;9.244;2023-04-08T03:31:22;5.43;;;5.03;;
5718;SDS011;2884;47.734;9.244;2023-04-08T03:33:48;5.23;;;4.83;;
5718;SDS011;2884;47.734;9.244;2023-04-08T03:36:14;5.57;;;5.10;;
5718;SDS011;2884;47.734;9.244;2023-04-08T03:38:39;5.87;;;5.37;;
5718;SDS011;2884;47.734;9.244;2023-04-08T03:41:05;7.00;;;5.00;;
5718;SDS011;2884;47.734;9.244;2023-04-08T03:43:30;5.77;;;5.20;;
5718;SDS011;2884;47.734;9.244;2023-04-08T03:45:56;6.03;;;5.53;;
5718;SDS011;2884;47.734;9.244;2023-04-08T03:48:22;6.10;;;5.50;;
5718;SDS011;2884;47.734;9.244;2023-04-08T03:50:48;6.50;;;5.90;;
5718;SDS011;2884;47.734;9.244;2023-04-08T03:53:13;6.30;;;5.70;;
5718;SDS011;2884;47.734;9.244;2023-04-08T03:55:39;6.23;;;5.70;;
5718;SDS011;2884;47.734;9.244;2023-04-08T03:58:04;6.60;;;5.90;;
5718;SDS011;2884;47.734;9.244;2023-04-08T04:00:30;6.47;;;5.97;;
5718;SDS011;2884;47.734;9.244;2023-04-08T04:02:56;6.63;;;5.70;;
5718;SDS011;2884;47.734;9.244;2023-04-08T04:05:21;6.03;;;5.53;;
5718;SDS011;2884;47.734;9.244;2023-04-08T04:07:46;6.37;;;5.77;;
5718;SDS011;2884;47.734;9.244;2023-04-08T04:10:12;6.67;;;6.03;;
5718;SDS011;2884;47.734;9.244;2023-04-08T04:12:38;7.20;;;6.60;;
5718;SDS011;2884;47.734;9.244;2023-04-08T04:15:03;7.40;;;6.60;;
5718;SDS011;2884;47.734;9.244;2023-04-08T04:17:29;7.30;;;6.60;;
5718;SDS011;2884;47.734;9.244;2023-04-08T04:19:55;7.93;;;6.50;;
5718;SDS011;2884;47.734;9.244;2023-04-08T04:22:20;6.60;;;5.90;;
5718;SDS011;2884;47.734;9.244;2023-04-08T04:24:49;8.57;;;6.80;;
5718;SDS011;2884;47.734;9.244;2023-04-08T04:27:14;7.63;;;6.00;;
5718;SDS011;2884;47.734;9.244;2023-04-08T04:29:42;7.37;;;6.67;;
5718;SDS011;2884;47.734;9.244;2023-04-08T04:32:08;6.77;;;6.13;;
5718;SDS011;2884;47.734;9.244;2023-04-08T04:34:33;8.37;;;7.43;;
5718;SDS011;2884;47.734;9.244;2023-04-08T04:36:59;6.40;;;5.80;;
5718;SDS011;2884;47.734;9.244;2023-04-08T04:39:24;7.90;;;6.60;;
5718;SDS011;2884;47.734;9.244;2023-04-08T04:41:53;7.90;;;7.00;;
5718;SDS011;2884;47.734;9.244;2023-04-08T04:44:20;9.10;;;6.90;;
5718;SDS011;2884;47.734;9.244;2023-04-08T04:46:46;8.07;;;7.27;;
5718;SDS011;2884;47.734;9.244;2023-04-08T04:49:11;7.80;;;6.53;;
5718;SDS011;2884;47.734;9.244;2023-04-08T04:51:37;8.93;;;6.90;;
5718;SDS011;2884;47.734;9.244;2023-04-08T04:54:02;7.67;;;6.70;;
5718;SDS011;2884;47.734;9.244;2023-04-08T04:56:28;8.53;;;7.33;;
5718;SDS011;2884;47.734;9.244;2023-04-08T04:58:53;9.60;;;7.63;;
5718;SDS011;2884;47.734;9.244;2023-04-08T05:01:19;8.90;;;7.77;;
5718;SDS011;2884;47.734;9.244;2023-04-08T05:03:45;8.63;;;7.70;;
5718;SDS011;2884;47.734;9.244;2023-04-08T05:06:10;9.23;;;8.33;;
5718;SDS011;2884;47.734;9.244;2023-04-08T05:08:36;9.30;;;7.80;;
5718;SDS011;2884;47.734;9.244;2023-04-08T05:11:01;9.47;;;7.47;;
5718;SDS011;2884;47.734;9.244;2023-04-08T05:13:27;8.73;;;7.77;;
5718;SDS011;2884;47.734;9.244;2023-04-08T05:15:53;9.47;;;7.80;;
5718;SDS011;2884;47.734;9.244;2023-04-08T05:18:19;8.67;;;7.70;;
5718;SDS011;2884;47.734;9.244;2023-04-08T05:20:44;10.33;;;8.00;;
5718;SDS011;2884;47.734;9.244;2023-04-08T05:23:10;10.93;;;8.30;;
5718;SDS011;2884;47.734;9.244;2023-04-08T05:25:36;8.90;;;8.10;;
5718;SDS011;2884;47.734;9.244;2023-04-08T05:28:02;8.63;;;7.80;;
5718;SDS011;2884;47.734;9.244;2023-04-08T05:30:28;8.43;;;7.63;;
5718;SDS011;2884;47.734;9.244;2023-04-08T05:32:53;9.60;;;8.60;;
5718;SDS011;2884;47.734;9.244;2023-04-08T05:35:19;9.37;;;8.47;;
5718;SDS011;2884;47.734;9.244;2023-04-08T05:37:45;8.20;;;7.40;;
5718;SDS011;2884;47.734;9.244;2023-04-08T05:40:10;9.73;;;8.73;;
5718;SDS011;2884;47.734;9.244;2023-04-08T05:42:36;9.37;;;8.50;;
5718;SDS011;2884;47.734;9.244;2023-04-08T05:45:02;9.87;;;8.40;;
5718;SDS011;2884;47.734;9.244;2023-04-08T05:47:28;9.00;;;8.20;;
5718;SDS011;2884;47.734;9.244;2023-04-08T05:49:53;9.87;;;8.23;;
5718;SDS011;2884;47.734;9.244;2023-04-08T05:52:19;9.83;;;8.83;;
5718;SDS011;2884;47.734;9.244;2023-04-08T05:54:44;8.60;;;7.80;;
5718;SDS011;2884;47.734;9.244;2023-04-08T05:57:10;8.60;;;7.80;;
5718;SDS011;2884;47.734;9.244;2023-04-08T05:59:36;8.70;;;7.90;;
5718;SDS011;2884;47.734;9.244;2023-04-08T06:02:01;9.17;;;8.27;;
5718;SDS011;2884;47.734;9.244;2023-04-08T06:04:27;8.60;;;7.80;;
5718;SDS011;2884;47.734;9.244;2023-04-08T06:06:52;8.87;;;8.00;;
5718;SDS011;2884;47.734;9.244;2023-04-08T06:09:18;9.43;;;8.53;;
5718;SDS011;2884;47.734;9.244;2023-04-08T06:11:43;9.13;;;8.23;;
5718;SDS011;2884;47.734;9.244;2023-04-08T06:14:11;9.27;;;8.27;;
5718;SDS011;2884;47.734;9.244;2023-04-08T06:16:36;9.43;;;8.40;;
5718;SDS011;2884;47.734;9.244;2023-04-08T06:19:02;9.00;;;8.20;;
5718;SDS011;2884;47.734;9.244;2023-04-08T06:21:28;8.67;;;7.87;;
5718;SDS011;2884;47.734;9.244;2023-04-08T06:23:53;9.40;;;8.50;;
5718;SDS011;2884;47.734;9.244;2023-04-08T06:26:19;8.63;;;7.90;;
5718;SDS011;2884;47.734;9.244;2023-04-08T06:28:44;8.20;;;7.40;;
5718;SDS011;2884;47.734;9.244;2023-04-08T06:31:10;8.00;;;7.30;;
5718;SDS011;2884;47.734;9.244;2023-04-08T06:33:36;8.63;;;7.20;;
5718;SDS011;2884;47.734;9.244;2023-04-08T06:36:05;8.27;;;7.47;;
5718;SDS011;2884;47.734;9.244;2023-04-08T06:38:32;7.73;;;7.00;;
5718;SDS011;2884;47.734;9.244;2023-04-08T06:41:01;8.00;;;7.27;;
5718;SDS011;2884;47.734;9.244;2023-04-08T06:43:30;8.83;;;7.27;;
5718;SDS011;2884;47.734;9.244;2023-04-08T06:45:56;8.87;;;7.83;;
5718;SDS011;2884;47.734;9.244;2023-04-08T06:48:22;7.90;;;7.10;;
5718;SDS011;2884;47.734;9.244;2023-04-08T06:50:53;7.73;;;7.03;;
5718;SDS011;2884;47.734;9.244;2023-04-08T06:53:25;7.40;;;6.70;;
5718;SDS011;2884;47.734;9.244;2023-04-08T06:55:53;10.17;;;6.90;;
5718;SDS011;2884;47.734;9.244;2023-04-08T06:58:19;8.90;;;7.10;;
5718;SDS011;2884;47.734;9.244;2023-04-08T07:00:45;9.60;;;7.33;;
5718;SDS011;2884;47.734;9.244;2023-04-08T07:03:11;7.80;;;7.00;;
5718;SDS011;2884;47.734;9.244;2023-04-08T07:05:37;8.53;;;6.57;;
5718;SDS011;2884;47.734;9.244;2023-04-08T07:08:03;11.17;;;7.67;;
5718;SDS011;2884;47.734;9.244;2023-04-08T07:10:29;10.50;;;7.33;;
5718;SDS011;2884;47.734;9.244;2023-04-08T07:12:55;7.67;;;7.00;;
5718;SDS011;2884;47.734;9.244;2023-04-08T07:15:21;7.93;;;7.17;;
5718;SDS011;2884;47.734;9.244;2023-04-08T07:17:46;6.97;;;6.27;;
5718;SDS011;2884;47.734;9.244;2023-04-08T07:20:12;8.20;;;7.10;;
5718;SDS011;2884;47.734;9.244;2023-04-08T07:22:41;9.97;;;7.80;;
5718;SDS011;2884;47.734;9.244;2023-04-08T07:25:06;7.87;;;7.07;;
5718;SDS011;2884;47.734;9.244;2023-04-08T07:27:32;9.23;;;7.80;;
5718;SDS011;2884;47.734;9.244;2023-04-08T07:29:59;9.03;;;7.77;;
5718;SDS011;2884;47.734;9.244;2023-04-08T07:32:25;12.47;;;7.40;;
5718;SDS011;2884;47.734;9.244;2023-04-08T07:34:51;8.70;;;7.27;;
5718;SDS011;2884;47.734;9.244;2023-04-08T07:37:17;8.70;;;7.20;;
5718;SDS011;2884;47.734;9.244;2023-04-08T07:39:42;8.90;;;8.00;;
5718;SDS011;2884;47.734;9.244;2023-04-08T07:42:08;7.93;;;7.13;;
5718;SDS011;2884;47.734;9.244;2023-04-08T07:44:34;9.20;;;8.30;;
5718;SDS011;2884;47.734;9.244;2023-04-08T07:46:59;8.43;;;7.50;;
5718;SDS011;2884;47.734;9.244;2023-04-08T07:49:25;8.57;;;7.50;;
5718;SDS011;2884;47.734;9.244;2023-04-08T07:51:51;9.93;;;7.40;;
5718;SDS011;2884;47.734;9.244;2023-04-08T07:54:17;7.73;;;7.00;;
5718;SDS011;2884;47.734;9.244;2023-04-08T07:56:42;8.80;;;7.83;;
5718;SDS011;2884;47.734;9.244;2023-04-08T07:59:11;9.30;;;7.47;;
5718;SDS011;2884;47.734;9.244;2023-04-08T08:01:37;8.90;;;8.00;;
5718;SDS011;2884;47.734;9.244;2023-04-08T08:04:03;7.43;;;6.73;;
5718;SDS011;2884;47.734;9.244;2023-04-08T08:06:29;8.87;;;7.37;;
5718;SDS011;2884;47.734;9.244;2023-04-08T08:08:58;7.60;;;6.90;;
5718;SDS011;2884;47.734;9.244;2023-04-08T08:11:23;8.07;;;7.27;;
5718;SDS011;2884;47.734;9.244;2023-04-08T08:13:51;9.30;;;8.30;;
5718;SDS011;2884;47.734;9.244;2023-04-08T08:16:16;11.33;;;8.43;;
5718;SDS011;2884;47.734;9.244;2023-04-08T08:18:42;9.70;;;7.37;;
5718;SDS011;2884;47.734;9.244;2023-04-08T08:21:07;8.90;;;8.00;;
5718;SDS011;2884;47.734;9.244;2023-04-08T08:23:33;9.20;;;7.53;;
5718;SDS011;2884;47.734;9.244;2023-04-08T08:25:59;9.20;;;7.80;;
5718;SDS011;2884;47.734;9.244;2023-04-08T08:28:26;10.20;;;7.60;;
5718;SDS011;2884;47.734;9.244;2023-04-08T08:30:52;8.73;;;7.83;;
5718;SDS011;2884;47.734;9.244;2023-04-08T08:33:17;9.53;;;7.23;;
5718;SDS011;2884;47.734;9.244;2023-04-08T08:35:43;8.77;;;7.30;;
5718;SDS011;2884;47.734;9.244;2023-04-08T08:38:08;8.87;;;7.97;;
5718;SDS011;2884;47.734;9.244;2023-04-08T08:40:34;7.93;;;7.13;;
5718;SDS011;2884;47.734;9.244;2023-04-08T08:43:00;10.40;;;8.80;;
5718;SDS011;2884;47.734;9.244;2023-04-08T08:45:25;8.83;;;7.93;;
5718;SDS011;2884;47.734;9.244;2023-04-08T08:47:51;8.90;;;8.00;;
5718;SDS011;2884;47.734;9.244;2023-04-08T08:50:17;9.00;;;8.10;;
5718;SDS011;2884;47.734;9.244;2023-04-08T08:52:49;10.80;;;8.43;;
5718;SDS011;2884;47.734;9.244;2023-04-08T08:55:19;9.70;;;8.70;;
5718;SDS011;2884;47.734;9.244;2023-04-08T08:57:45;9.10;;;8.17;;
5718;SDS011;2884;47.734;9.244;2023-04-08T09:00:11;10.27;;;7.90;;
5718;SDS011;2884;47.734;9.244;2023-04-08T09:02:40;9.13;;;8.23;;
5718;SDS011;2884;47.734;9.244;2023-04-08T09:05:06;9.03;;;8.10;;
5718;SDS011;2884;47.734;9.244;2023-04-08T09:07:35;11.33;;;8.50;;
5718;SDS011;2884;47.734;9.244;2023-04-08T09:10:01;9.73;;;8.30;;
5718;SDS011;2884;47.734;9.244;2023-04-08T09:12:28;8.80;;;7.90;;
5718;SDS011;2884;47.734;9.244;2023-04-08T09:17:34;9.10;;;8.20;;
5718;SDS011;2884;47.734;9.244;2023-04-08T09:20:05;11.73;;;9.43;;
5718;SDS011;2884;47.734;9.244;2023-04-08T09:25:24;13.40;;;9.23;;
5718;SDS011;2884;47.734;9.244;2023-04-08T09:27:54;9.20;;;8.30;;
5718;SDS011;2884;47.734;9.244;2023-04-08T09:30:23;10.70;;;8.47;;
5718;SDS011;2884;47.734;9.244;2023-04-08T09:32:51;10.93;;;9.23;;
5718;SDS011;2884;47.734;9.244;2023-04-08T09:35:21;11.90;;;10.03;;
5718;SDS011;2884;47.734;9.244;2023-04-08T09:37:47;10.87;;;9.17;;
5718;SDS011;2884;47.734;9.244;2023-04-08T09:40:14;9.53;;;8.43;;
5718;SDS011;2884;47.734;9.244;2023-04-08T09:42:43;8.63;;;7.83;;
5718;SDS011;2884;47.734;9.244;2023-04-08T09:45:09;10.77;;;9.20;;
5718;SDS011;2884;47.734;9.244;2023-04-08T09:48:23;9.27;;;8.33;;
5718;SDS011;2884;47.734;9.244;2023-04-08T09:50:35;9.97;;;8.30;;
5718;SDS011;2884;47.734;9.244;2023-04-08T09:53:29;9.53;;;8.10;;
5718;SDS011;2884;47.734;9.244;2023-04-08T09:56:01;8.83;;;7.80;;
5718;SDS011;2884;47.734;9.244;2023-04-08T09:58:33;8.30;;;7.50;;
5718;SDS011;2884;47.734;9.244;2023-04-08T10:01:03;11.53;;;9.10;;
5718;SDS011;2884;47.734;9.244;2023-04-08T10:03:32;19.03;;;7.83;;
5718;SDS011;2884;47.734;9.244;2023-04-08T10:06:01;10.97;;;8.33;;
5718;SDS011;2884;47.734;9.244;2023-04-08T10:08:27;9.33;;;8.33;;
5718;SDS011;2884;47.734;9.244;2023-04-08T10:10:53;8.60;;;7.73;;
5718;SDS011;2884;47.734;9.244;2023-04-08T10:13:20;8.33;;;7.50;;
5718;SDS011;2884;47.734;9.244;2023-04-08T10:15:46;13.13;;;8.23;;
5718;SDS011;2884;47.734;9.244;2023-04-08T10:20:42;9.03;;;8.13;;
5718;SDS011;2884;47.734;9.244;2023-04-08T10:23:12;9.20;;;7.60;;
5718;SDS011;2884;47.734;9.244;2023-04-08T10:30:55;9.20;;;7.77;;
5718;SDS011;2884;47.734;9.244;2023-04-08T10:33:23;69.80;;;22.90;;
5718;SDS011;2884;47.734;9.244;2023-04-08T10:38:33;9.20;;;8.00;;
5718;SDS011;2884;47.734;9.244;2023-04-08T10:40:59;11.87;;;7.90;;
5718;SDS011;2884;47.734;9.244;2023-04-08T10:43:25;10.33;;;7.97;;
5718;SDS011;2884;47.734;9.244;2023-04-08T10:45:52;8.63;;;7.60;;
5718;SDS011;2884;47.734;9.244;2023-04-08T10:48:19;9.43;;;8.20;;
5718;SDS011;2884;47.734;9.244;2023-04-08T10:50:53;8.00;;;7.20;;
5718;SDS011;2884;47.734;9.244;2023-04-08T10:53:27;9.80;;;8.37;;
5718;SDS011;2884;47.734;9.244;2023-04-08T10:56:07;8.20;;;6.80;;
5718;SDS011;2884;47.734;9.244;2023-04-08T10:58:46;7.83;;;7.07;;
5718;SDS011;2884;47.734;9.244;2023-04-08T11:01:21;9.33;;;7.60;;
5718;SDS011;2884;47.734;9.244;2023-04-08T11:03:47;7.80;;;6.77;;
5718;SDS011;2884;47.734;9.244;2023-04-08T11:06:13;9.07;;;7.93;;
5718;SDS011;2884;47.734;9.244;2023-04-08T11:08:39;8.57;;;7.70;;
5718;SDS011;2884;47.734;9.244;2023-04-08T11:11:06;10.90;;;8.93;;
5718;SDS011;2884;47.734;9.244;2023-04-08T11:13:39;10.40;;;8.40;;
5718;SDS011;2884;47.734;9.244;2023-04-08T11:16:06;10.10;;;8.00;;
5718;SDS011;2884;47.734;9.244;2023-04-08T11:18:39;9.80;;;8.43;;
5718;SDS011;2884;47.734;9.244;2023-04-08T11:21:08;11.73;;;9.20;;
5718;SDS011;2884;47.734;9.244;2023-04-08T11:23:34;10.40;;;8.43;;
5718;SDS011;2884;47.734;9.244;2023-04-08T11:26:00;10.40;;;7.53;;
5718;SDS011;2884;47.734;9.244;2023-04-08T11:28:26;8.60;;;7.80;;
5718;SDS011;2884;47.734;9.244;2023-04-08T11:30:52;9.30;;;7.63;;
5718;SDS011;2884;47.734;9.244;2023-04-08T11:33:18;8.23;;;7.20;;
5718;SDS011;2884;47.734;9.244;2023-04-08T11:35:44;11.40;;;7.10;;
5718;SDS011;2884;47.734;9.244;2023-04-08T11:38:09;7.60;;;6.80;;
5718;SDS011;2884;47.734;9.244;2023-04-08T11:40:35;12.77;;;7.30;;
5718;SDS011;2884;47.734;9.244;2023-04-08T11:43:11;7.80;;;6.67;;
5718;SDS011;2884;47.734;9.244;2023-04-08T11:45:40;6.53;;;5.93;;
5718;SDS011;2884;47.734;9.244;2023-04-08T11:48:09;9.47;;;7.50;;
5718;SDS011;2884;47.734;9.244;2023-04-08T11:50:35;8.53;;;7.63;;
5718;SDS011;2884;47.734;9.244;2023-04-08T11:53:01;9.93;;;8.47;;
5718;SDS011;2884;47.734;9.244;2023-04-08T11:55:28;7.00;;;6.30;;
5718;SDS011;2884;47.734;9.244;2023-04-08T11:57:55;6.50;;;5.90;;
5718;SDS011;2884;47.734;9.244;2023-04-08T12:00:22;7.47;;;6.57;;
5718;SDS011;2884;47.734;9.244;2023-04-08T12:02:48;9.67;;;7.00;;
5718;SDS011;2884;47.734;9.244;2023-04-08T12:05:14;7.67;;;6.87;;
5718;SDS011;2884;47.734;9.244;2023-04-08T12:07:40;7.70;;;6.90;;
5718;SDS011;2884;47.734;9.244;2023-04-08T12:10:07;7.20;;;6.50;;
5718;SDS011;2884;47.734;9.244;2023-04-08T12:12:33;7.17;;;6.47;;
5718;SDS011;2884;47.734;9.244;2023-04-08T12:14:59;6.40;;;5.73;;
5718;SDS011;2884;47.734;9.244;2023-04-08T12:17:24;7.13;;;6.43;;
5718;SDS011;2884;47.734;9.244;2023-04-08T12:19:50;7.30;;;6.60;;
5718;SDS011;2884;47.734;9.244;2023-04-08T12:22:15;7.17;;;6.47;;
5718;SDS011;2884;47.734;9.244;2023-04-08T12:24:41;9.30;;;7.30;;
5718;SDS011;2884;47.734;9.244;2023-04-08T12:27:07;8.37;;;7.47;;
5718;SDS011;2884;47.734;9.244;2023-04-08T12:29:32;7.17;;;6.43;;
5718;SDS011;2884;47.734;9.244;2023-04-08T12:31:58;8.63;;;7.40;;
5718;SDS011;2884;47.734;9.244;2023-04-08T12:34:24;7.90;;;7.10;;
5718;SDS011;2884;47.734;9.244;2023-04-08T12:36:49;8.30;;;7.20;;
5718;SDS011;2884;47.734;9.244;2023-04-08T12:39:15;12.60;;;7.80;;
5718;SDS011;2884;47.734;9.244;2023-04-08T12:41:40;8.70;;;7.30;;
5718;SDS011;2884;47.734;9.244;2023-04-08T12:44:06;10.00;;;8.80;;
5718;SDS011;2884;47.734;9.244;2023-04-08T12:46:32;8.90;;;8.00;;
5718;SDS011;2884;47.734;9.244;2023-04-08T12:48:57;8.97;;;7.90;;
5718;SDS011;2884;47.734;9.244;2023-04-08T12:51:23;9.33;;;8.07;;
5718;SDS011;2884;47.734;9.244;2023-04-08T12:53:50;9.00;;;7.40;;
5718;SDS011;2884;47.734;9.244;2023-04-08T12:56:16;13.23;;;8.27;;
5718;SDS011;2884;47.734;9.244;2023-04-08T12:58:41;9.57;;;7.97;;
5718;SDS011;2884;47.734;9.244;2023-04-08T13:01:07;9.93;;;8.93;;
5718;SDS011;2884;47.734;9.244;2023-04-08T13:03:32;11.93;;;10.00;;
5718;SDS011;2884;47.734;9.244;2023-04-08T13:06:00;11.30;;;8.70;;
5718;SDS011;2884;47.734;9.244;2023-04-08T13:08:26;10.00;;;7.90;;
5718;SDS011;2884;47.734;9.244;2023-04-08T13:10:51;9.43;;;8.10;;
5718;SDS011;2884;47.734;9.244;2023-04-08T13:13:17;11.10;;;9.40;;
5718;SDS011;2884;47.734;9.244;2023-04-08T13:15:42;14.10;;;11.37;;
5718;SDS011;2884;47.734;9.244;2023-04-08T13:18:08;24.53;;;18.20;;
5718;SDS011;2884;47.734;9.244;2023-04-08T13:20:34;28.20;;;19.90;;
5718;SDS011;2884;47.734;9.244;2023-04-08T13:22:59;13.23;;;11.30;;
5718;SDS011;2884;47.734;9.244;2023-04-08T13:25:25;26.13;;;16.13;;
5718;SDS011;2884;47.734;9.244;2023-04-08T13:27:51;15.20;;;11.07;;
5718;SDS011;2884;47.734;9.244;2023-04-08T13:30:16;12.97;;;11.07;;
5718;SDS011;2884;47.734;9.244;2023-04-08T13:32:42;12.13;;;10.60;;
5718;SDS011;2884;47.734;9.244;2023-04-08T13:35:08;16.20;;;12.33;;
5718;SDS011;2884;47.734;9.244;2023-04-08T13:37:33;12.13;;;10.13;;
5718;SDS011;2884;47.734;9.244;2023-04-08T13:39:59;24.20;;;15.20;;
5718;SDS011;2884;47.734;9.244;2023-04-08T13:42:25;19.57;;;13.10;;
5718;SDS011;2884;47.734;9.244;2023-04-08T13:44:51;26.37;;;13.47;;
5718;SDS011;2884;47.734;9.244;2023-04-08T13:47:16;10.97;;;9.87;;
5718;SDS011;2884;47.734;9.244;2023-04-08T13:49:42;12.80;;;11.00;;
5718;SDS011;2884;47.734;9.244;2023-04-08T13:52:08;41.40;;;20.57;;
5718;SDS011;2884;47.734;9.244;2023-04-08T13:54:34;37.13;;;16.63;;
5718;SDS011;2884;47.734;9.244;2023-04-08T13:56:59;14.97;;;10.80;;
5718;SDS011;2884;47.734;9.244;2023-04-08T13:59:25;66.93;;;24.03;;
5718;SDS011;2884;47.734;9.244;2023-04-08T14:01:51;50.73;;;18.70;;
5718;SDS011;2884;47.734;9.244;2023-04-08T14:04:18;35.00;;;14.77;;
5718;SDS011;2884;47.734;9.244;2023-04-08T14:06:45;19.50;;;10.80;;
5718;SDS011;2884;47.734;9.244;2023-04-08T14:09:10;28.63;;;13.90;;
5718;SDS011;2884;47.734;9.244;2023-04-08T14:11:36;67.07;;;26.40;;
5718;SDS011;2884;47.734;9.244;2023-04-08T14:14:02;12.03;;;9.33;;
5718;SDS011;2884;47.734;9.244;2023-04-08T14:16:27;21.50;;;12.13;;
5718;SDS011;2884;47.734;9.244;2023-04-08T14:18:55;25.63;;;13.63;;
5718;SDS011;2884;47.734;9.244;2023-04-08T14:21:21;18.67;;;12.07;;
5718;SDS011;2884;47.734;9.244;2023-04-08T14:23:47;13.20;;;9.67;;
5718;SDS011;2884;47.734;9.244;2023-04-08T14:26:12;23.80;;;15.23;;
5718;SDS011;2884;47.734;9.244;2023-04-08T14:28:38;12.50;;;9.97;;
5718;SDS011;2884;47.734;9.244;2023-04-08T14:31:03;9.67;;;8.20;;
5718;SDS011;2884;47.734;9.244;2023-04-08T14:33:30;10.50;;;9.40;;
5718;SDS011;2884;47.734;9.244;2023-04-08T14:35:56;8.37;;;7.53;;
5718;SDS011;2884;47.734;9.244;2023-04-08T14:38:23;9.13;;;8.17;;
5718;SDS011;2884;47.734;9.244;2023-04-08T14:40:49;8.63;;;7.77;;
5718;SDS011;2884;47.734;9.244;2023-04-08T14:43:14;9.03;;;8.10;;
5718;SDS011;2884;47.734;9.244;2023-04-08T14:45:40;9.73;;;8.50;;
5718;SDS011;2884;47.734;9.244;2023-04-08T14:48:06;11.40;;;9.90;;
5718;SDS011;2884;47.734;9.244;2023-04-08T14:50:32;9.67;;;8.70;;
5718;SDS011;2884;47.734;9.244;2023-04-08T14:52:57;10.30;;;9.00;;
5718;SDS011;2884;47.734;9.244;2023-04-08T14:55:23;11.63;;;9.63;;
5718;SDS011;2884;47.734;9.244;2023-04-08T14:57:49;12.13;;;9.60;;
5718;SDS011;2884;47.734;9.244;2023-04-08T15:00:15;9.00;;;7.80;;
5718;SDS011;2884;47.734;9.244;2023-04-08T15:02:41;10.70;;;8.97;;
5718;SDS011;2884;47.734;9.244;2023-04-08T15:05:06;7.00;;;6.30;;
5718;SDS011;2884;47.734;9.244;2023-04-08T15:07:32;6.70;;;5.70;;
5718;SDS011;2884;47.734;9.244;2023-04-08T15:09:58;7.80;;;6.13;;
5718;SDS011;2884;47.734;9.244;2023-04-08T15:12:23;5.67;;;5.17;;
5718;SDS011;2884;47.734;9.244;2023-04-08T15:14:49;5.40;;;4.90;;
5718;SDS011;2884;47.734;9.244;2023-04-08T15:17:15;5.53;;;5.03;;
5718;SDS011;2884;47.734;9.244;2023-04-08T15:19:41;4.87;;;4.47;;
5718;SDS011;2884;47.734;9.244;2023-04-08T15:22:06;6.50;;;4.80;;
5718;SDS011;2884;47.734;9.244;2023-04-08T15:24:32;4.53;;;4.13;;
5718;SDS011;2884;47.734;9.244;2023-04-08T15:26:57;7.30;;;4.80;;
5718;SDS011;2884;47.734;9.244;2023-04-08T15:29:23;5.73;;;4.63;;
5718;SDS011;2884;47.734;9.244;2023-04-08T15:31:49;5.13;;;4.63;;